Terminal Aerodrome Forecast
Issued by NWS Wilmington, NC

Home | Current Version | Previous Version | Text Only | Print | Product List | Glossary On
Versions: 1 2 3 4 5 6 7 8 9 10 11 12 13 14 15 16 17 18 19 20 21 22 23
000
FTUS42 KILM 251100
TAFLBT
TAF
KLBT 251136Z 2512/2612 03006KT 6SM BR BKN009
     FM251400 06005KT P6SM VCSH SCT050 SCT100
     FM260100 VRB02KT P6SM SCT040 SCT090
     FM260600 VRB02KT 4SM BR FEW003 FEW060=

USA.gov is the U.S. government's official web portal to all federal, state and local government web resources and services.